METAR Data
IDs: Format: Raw Decoded Include TAF

Data at: 1725 UTC 21 Sep 2018

KTYR 211653Z 18008KT 10SM SCT120 29/23 A3001 RMK AO2 SLP153 T02890233
KTYR 211629Z 16010KT 10SM FEW017 SCT022 BKN110 29/23 A3001 RMK AO2 T02890233
KTYR 211617Z 15010KT 10SM SCT018 BKN022 BKN100 28/24 A3001 RMK AO2 T02830244
KTYR 211553Z 16007KT 10SM FEW018 BKN100 28/24 A3001 RMK AO2 SLP153 T02830244
KTYR 211453Z 15009KT 10SM FEW010 SCT100 28/24 A3000 RMK AO2 SLP150 T02780244 51006
KTYR 211415Z 15009KT 10SM FEW009 SCT110 27/24 A2999 RMK AO2 T02670244
KTYR 211353Z 16009KT 10SM BKN100 27/24 A2999 RMK AO2 SLP148 T02670244
KTYR 211253Z 16006KT 10SM OVC110 26/24 A2999 RMK AO2 SLP147 T02560239
KTYR 211153Z 15006KT 10SM OVC100 25/24 A2998 RMK AO2 SLP143 T02500239 10250 20244 53005
KTYR 211053Z AUTO 15005KT 10SM OVC100 24/23 A2997 RMK AO2 SLP139 T02440233
KTYR 210953Z AUTO 15005KT 10SM OVC110 24/23 A2997 RMK AO2 SLP139 T02440233
KTYR 210853Z AUTO 17005KT 10SM BKN110 24/23 A2996 RMK AO2 SLP137 T02440228 55001
KTYR 210753Z AUTO 16006KT 10SM BKN110 24/22 A2996 RMK AO2 SLP135 T02440222
KTYR 210653Z AUTO 17005KT 10SM BKN110 24/22 A2996 RMK AO2 SLP137 T02440217
KTYR 210553Z AUTO 18005KT 10SM BKN110 24/22 A2997 RMK AO2 SLP138 60000 T02440217 10283 20244 403330228 58003
KTYR 210453Z AUTO 17006KT 10SM FEW110 25/22 A2997 RMK AO2 SLP141 T02500217
KTYR 210353Z AUTO 19007KT 10SM CLR 26/22 A2998 RMK AO2 RAB04E16 SLP143 P0000 T02560222
KTYR 210253Z AUTO 18005KT 10SM FEW038 SCT110 26/23 A2998 RMK AO2 SLP143 60000 T02610233 51023
KTYR 210153Z 20004KT 10SM CLR 27/23 A2996 RMK AO2 SLP137 T02670233
KTYR 210053Z 18005KT 10SM CLR 27/23 A2993 RMK AO2 RAE2356 SLP128 P0000 T02720233
KTYR 202353Z 20008KT 10SM -RA SCT055 SCT090 28/22 A2991 RMK AO2 LTG DSNT W AND NW RAB33 SLP120 P0000 60000 T02830222 10333 20283 56005
KTYR 202321Z 17007KT 10SM SCT048 30/21 A2990 RMK AO2 LTG DSNT W AND NW T03000206
KTYR 202303Z 15012KT 10SM VCTS SCT050 BKN065 BKN080 31/20 A2991 RMK AO2 LTG DSNT SW AND W T03060200
KTYR 202253Z 15009KT 10SM FEW050 BKN065 BKN080 31/20 A2991 RMK AO2 LTG DSNT SW SLP120 T03060200
KTYR 202153Z 15008KT 10SM FEW047 33/20 A2991 RMK AO2 SLP120 T03280200
KTYR 202053Z 17008KT 10SM SCT047 BKN060 32/20 A2992 RMK AO2 SLP125 T03170200 56022
KTYR 201953Z 15007KT 10SM SCT043 BKN060 33/21 A2995 RMK AO2 SLP131 T03280206
KTYR 201853Z 17008KT 130V200 10SM FEW041 32/21 A2997 RMK AO2 SLP138 T03220206
KTYR 201753Z 16010KT 10SM FEW035 32/21 A2999 RMK AO2 SLP147 T03220206 10322 20228 58005
KTYR 201653Z 21008KT 10SM FEW030 31/22 A3001 RMK AO2 SLP155 T03060217
KTYR 201553Z 17007KT 10SM FEW023 30/22 A3001 RMK AO2 SLP154 T03000222
KTYR 201453Z 22006KT 10SM CLR 28/23 A3000 RMK AO2 SLP151 T02780228 51013
KTYR 201353Z 18005KT 10SM CLR 26/23 A2999 RMK AO2 SLP148 T02560233
KTYR 201253Z 18004KT 10SM CLR 23/22 A2998 RMK AO2 SLP143 T02330222
KTYR 201153Z 15005KT 10SM CLR 23/22 A2996 RMK AO2 SLP138 T02280222 10261 20228 53008
KTYR 201053Z AUTO 18006KT 10SM CLR 23/22 A2995 RMK AO2 SLP133 T02280217
KTYR 200953Z AUTO 19006KT 10SM CLR 23/21 A2994 RMK AO2 SLP131 T02280211
KTYR 200853Z AUTO 18004KT 10SM CLR 23/21 A2994 RMK AO2 SLP129 T02280211 58005
KTYR 200753Z AUTO 21003KT 10SM CLR 23/21 A2994 RMK AO2 SLP131 T02330206
KTYR 200653Z AUTO 17005KT 10SM CLR 24/20 A2995 RMK AO2 SLP133 T02390200
KTYR 200553Z AUTO 21007KT 10SM CLR 26/19 A2995 RMK AO2 SLP134 T02560189 10322 20244 403500239 57003